Time;durP1;ratioP1;P1;durP2;ratioP2;P2;SDS_P1;SDS_P2;PMS_P1;PMS_P2;Temp;Humidity;BMP_temperature;BMP_pressure;BME280_temperature;BME280_humidity;BME280_pressure;Samples;Min_cycle;Max_cycle;Signal;HPM_P1;HPM_P2
2022/08/20 00:01:29;;;;;;;3.35;1.42;;;;;;;;;;5072439;28;20523;-62
2022/08/20 00:03:59;;;;;;;10.45;4.30;;;;;;;;;;5032343;28;20058;-62
2022/08/20 00:06:29;;;;;;;10.18;3.40;;;;;;;;;;4983533;28;20053;-62
2022/08/20 00:09:00;;;;;;;6.95;2.83;;;;;;;;;;4999683;28;20412;-62
2022/08/20 00:11:32;;;;;;;7.53;2.50;;;;;;;;;;5032363;28;20053;-62
2022/08/20 00:14:05;;;;;;;5.40;1.50;;;;;;;;;;4999629;28;20552;-64
2022/08/20 00:16:36;;;;;;;2.88;1.23;;;;;;;;;;5042925;28;20053;-62
2022/08/20 00:19:08;;;;;;;4.55;1.48;;;;;;;;;;5052252;28;20045;-63
2022/08/20 00:21:40;;;;;;;3.97;1.73;;;;;;;;;;5052107;28;20056;-63
2022/08/20 00:24:10;;;;;;;5.20;1.73;;;;;;;;;;5035386;28;20045;-63
2022/08/20 00:26:41;;;;;;;6.72;1.65;;;;;;;;;;5052073;28;20511;-63
2022/08/20 00:29:21;;;;;;;5.05;2.03;;;;;;;;;;5037123;28;20543;-63
2022/08/20 00:31:52;;;;;;;3.97;1.63;;;;;;;;;;5051979;28;20041;-63
2022/08/20 00:34:22;;;;;;;6.50;2.05;;;;;;;;;;5051846;28;20053;-63
2022/08/20 00:36:53;;;;;;;6.65;1.90;;;;;;;;;;5051735;28;20048;-63
2022/08/20 00:39:23;;;;;;;7.35;2.30;;;;;;;;;;5051984;28;20048;-63
2022/08/20 00:41:53;;;;;;;5.50;1.90;;;;;;;;;;5077923;28;20053;-63
2022/08/20 00:44:23;;;;;;;8.65;2.75;;;;;;;;;;5094380;28;20044;-63
2022/08/20 00:46:54;;;;;;;11.88;3.30;;;;;;;;;;5094354;28;20662;-63
2022/08/20 00:49:27;;;;;;;6.18;2.53;;;;;;;;;;5094487;28;20048;-64
2022/08/20 00:52:13;;;;;;;5.70;1.92;;;;;;;;;;5091794;28;20044;-63
2022/08/20 00:54:50;;;;;;;5.95;1.98;;;;;;;;;;5075293;28;20060;-63
2022/08/20 00:57:37;;;;;;;4.85;1.85;;;;;;;;;;5094149;28;20510;-64
2022/08/20 01:00:31;;;;;;;6.18;1.77;;;;;;;;;;5093832;28;20403;-64
2022/08/20 01:03:02;;;;;;;5.43;1.80;;;;;;;;;;5074481;28;20051;-64
2022/08/20 01:05:39;;;;;;;4.75;1.80;;;;;;;;;;5054104;28;20562;-64
2022/08/20 01:08:10;;;;;;;6.70;2.70;;;;;;;;;;5071298;28;20060;-64
2022/08/20 01:10:47;;;;;;;13.77;4.13;;;;;;;;;;5071230;28;20065;-64
2022/08/20 01:13:21;;;;;;;7.82;3.10;;;;;;;;;;5071074;28;20051;-64
2022/08/20 01:15:55;;;;;;;7.32;2.13;;;;;;;;;;5054680;28;20056;-64
2022/08/20 01:18:27;;;;;;;4.40;1.90;;;;;;;;;;5071172;28;20408;-64
2022/08/20 01:21:04;;;;;;;5.32;1.63;;;;;;;;;;5071119;28;20053;-64
2022/08/20 01:23:47;;;;;;;5.07;2.30;;;;;;;;;;5071180;28;20416;-64
2022/08/20 01:26:39;;;;;;;5.97;1.95;;;;;;;;;;5071108;28;20048;-64
2022/08/20 01:29:19;;;;;;;5.25;2.00;;;;;;;;;;5021393;28;20067;-64
2022/08/20 01:31:49;;;;;;;;;;;;;;;;;;5055576;28;20048;-63
2022/08/20 01:34:20;;;;;;;7.53;1.85;;;;;;;;;;5070739;28;20307;-64
2022/08/20 01:36:54;;;;;;;3.35;1.42;;;;;;;;;;5049723;28;20060;-64
2022/08/20 01:39:30;;;;;;;4.90;1.48;;;;;;;;;;5050730;28;20412;-64
2022/08/20 01:42:22;;;;;;;6.45;1.63;;;;;;;;;;5034414;28;20057;-64
2022/08/20 01:44:53;;;;;;;3.67;1.48;;;;;;;;;;5050641;28;20060;-64
2022/08/20 01:47:30;;;;;;;5.00;1.83;;;;;;;;;;5050545;28;20080;-64
2022/08/20 01:50:17;;;;;;;6.07;2.40;;;;;;;;;;5021230;28;20044;-63
2022/08/20 01:53:01;;;;;;;4.22;1.58;;;;;;;;;;5034103;28;20096;-63
2022/08/20 01:55:32;;;;;;;3.90;1.77;;;;;;;;;;5017473;28;20060;-63
2022/08/20 01:58:02;;;;;;;6.03;2.45;;;;;;;;;;5034258;28;20045;-63
2022/08/20 02:00:34;;;;;;;7.28;2.95;;;;;;;;;;5050551;28;20049;-63
2022/08/20 02:03:06;;;;;;;10.90;3.05;;;;;;;;;;5033786;28;20073;-63
2022/08/20 02:05:36;;;;;;;12.10;3.08;;;;;;;;;;5017423;28;20056;-63
2022/08/20 02:08:07;;;;;;;10.05;3.17;;;;;;;;;;5050238;28;20451;-63
2022/08/20 02:10:37;;;;;;;9.25;2.30;;;;;;;;;;5050256;28;20056;-63
2022/08/20 02:13:09;;;;;;;6.22;2.20;;;;;;;;;;5017502;28;20053;-63
2022/08/20 02:15:39;;;;;;;6.45;2.30;;;;;;;;;;5089620;28;20060;-63
2022/08/20 02:18:14;;;;;;;5.38;2.40;;;;;;;;;;5090726;28;20060;-63
2022/08/20 02:20:45;;;;;;;7.45;2.83;;;;;;;;;;5056866;28;20052;-63
2022/08/20 02:23:16;;;;;;;6.47;2.95;;;;;;;;;;5053449;28;20055;-62
2022/08/20 02:25:47;;;;;;;9.07;3.38;;;;;;;;;;5075076;28;20055;-63
2022/08/20 02:28:19;;;;;;;7.32;3.25;;;;;;;;;;5090275;28;20052;-62
2022/08/20 02:30:54;;;;;;;9.23;3.17;;;;;;;;;;5092487;28;20036;-62
2022/08/20 02:33:24;;;;;;;7.07;2.60;;;;;;;;;;5091205;28;20040;-62
2022/08/20 02:35:57;;;;;;;6.20;2.10;;;;;;;;;;5091486;28;20491;-63
2022/08/20 02:38:27;;;;;;;5.97;2.00;;;;;;;;;;5073589;28;20060;-63
2022/08/20 02:40:57;;;;;;;4.80;1.83;;;;;;;;;;5092366;28;20048;-63
2022/08/20 02:43:28;;;;;;;7.20;2.00;;;;;;;;;;5089756;28;20074;-63
2022/08/20 02:46:01;;;;;;;3.88;1.70;;;;;;;;;;5069612;28;20063;-63
2022/08/20 02:48:32;;;;;;;6.85;1.88;;;;;;;;;;5069486;28;20512;-64
2022/08/20 02:51:06;;;;;;;5.43;1.52;;;;;;;;;;5020274;28;20064;-63
2022/08/20 02:53:40;;;;;;;3.45;1.25;;;;;;;;;;5019803;28;20049;-63
2022/08/20 02:56:11;;;;;;;3.38;1.48;;;;;;;;;;5053632;28;20056;-64
2022/08/20 02:58:42;;;;;;;2.95;1.30;;;;;;;;;;5069733;28;20060;-63
2022/08/20 03:01:15;;;;;;;4.68;1.50;;;;;;;;;;5036373;28;20057;-63
2022/08/20 03:03:45;;;;;;;3.63;1.52;;;;;;;;;;5029362;28;20050;-63
2022/08/20 03:06:17;;;;;;;5.07;2.05;;;;;;;;;;5029777;28;20091;-63
2022/08/20 03:08:47;;;;;;;3.75;1.70;;;;;;;;;;4949445;28;20096;-63
2022/08/20 03:11:19;;;;;;;3.78;1.42;;;;;;;;;;5029813;28;20440;-63
2022/08/20 03:13:51;;;;;;;4.00;1.65;;;;;;;;;;5029506;28;20057;-63
2022/08/20 03:16:21;;;;;;;3.15;1.20;;;;;;;;;;5009420;28;20049;-63
2022/08/20 03:18:51;;;;;;;3.97;1.27;;;;;;;;;;4993391;28;20057;-63
2022/08/20 03:21:21;;;;;;;5.32;1.35;;;;;;;;;;5021881;28;20065;-63
2022/08/20 03:23:52;;;;;;;4.60;1.35;;;;;;;;;;5041479;28;20132;-62
2022/08/20 03:26:22;;;;;;;4.25;1.35;;;;;;;;;;5049581;28;20052;-62
2022/08/20 03:28:53;;;;;;;4.60;1.52;;;;;;;;;;5049240;28;20523;-63
2022/08/20 03:31:23;;;;;;;5.60;1.77;;;;;;;;;;5033127;28;20416;-63
2022/08/20 03:33:53;;;;;;;4.63;1.30;;;;;;;;;;5049265;28;20501;-63
2022/08/20 03:36:25;;;;;;;3.30;1.23;;;;;;;;;;5049382;28;20045;-63
2022/08/20 03:39:00;;;;;;;6.53;1.60;;;;;;;;;;5049314;28;20049;-62
2022/08/20 03:41:31;;;;;;;6.40;1.55;;;;;;;;;;5043628;28;20057;-63
2022/08/20 03:44:01;;;;;;;4.03;1.88;;;;;;;;;;5069330;28;20048;-63
2022/08/20 03:46:32;;;;;;;4.10;1.30;;;;;;;;;;5069389;28;20052;-62
2022/08/20 03:49:03;;;;;;;3.90;1.30;;;;;;;;;;5019619;28;20053;-63
2022/08/20 03:51:34;;;;;;;4.70;1.35;;;;;;;;;;5069003;28;20056;-63
2022/08/20 03:54:24;;;;;;;3.08;1.10;;;;;;;;;;5076171;28;20048;-63
2022/08/20 03:57:01;;;;;;;4.22;1.30;;;;;;;;;;5073480;28;20056;-63
2022/08/20 03:59:43;;;;;;;3.97;1.30;;;;;;;;;;5090780;28;20585;-64
2022/08/20 04:02:17;;;;;;;6.75;1.55;;;;;;;;;;5093092;28;20048;-63
2022/08/20 04:04:48;;;;;;;3.85;1.52;;;;;;;;;;5093148;28;20064;-64
2022/08/20 04:07:26;;;;;;;4.00;1.20;;;;;;;;;;5092954;28;20523;-63
2022/08/20 04:09:57;;;;;;;3.55;1.20;;;;;;;;;;5076495;28;20056;-63
2022/08/20 04:12:28;;;;;;;3.55;1.23;;;;;;;;;;5052037;28;20189;-63
2022/08/20 04:15:04;;;;;;;7.95;1.45;;;;;;;;;;5052755;28;20065;-63
2022/08/20 04:17:38;;;;;;;3.80;2.60;;;;;;;;;;4992676;28;20050;-63
2022/08/20 04:20:12;;;;;;;3.10;1.17;;;;;;;;;;4961056;28;20457;-63
2022/08/20 04:22:43;;;;;;;3.70;1.15;;;;;;;;;;5012278;28;20053;-63
2022/08/20 04:25:30;;;;;;;3.15;1.35;;;;;;;;;;5003601;28;20055;-63
2022/08/20 04:28:06;;;;;;;5.57;2.35;;;;;;;;;;4963055;28;20403;-63
2022/08/20 04:30:41;;;;;;;3.15;1.20;;;;;;;;;;4992844;28;20062;-63
2022/08/20 04:33:19;;;;;;;;;;;;;;;;;;4978786;28;20564;-63
2022/08/20 04:36:04;;;;;;;1.75;0.80;;;;;;;;;;4978340;28;20408;-63
2022/08/20 04:38:35;;;;;;;3.38;1.45;;;;;;;;;;4992664;28;20054;-63
2022/08/20 04:41:23;;;;;;;3.63;1.23;;;;;;;;;;4992357;28;20058;-63
2022/08/20 04:43:55;;;;;;;2.67;1.02;;;;;;;;;;4992569;28;20065;-63
2022/08/20 04:46:27;;;;;;;2.90;0.98;;;;;;;;;;4960696;28;20050;-63
2022/08/20 04:48:59;;;;;;;4.00;1.23;;;;;;;;;;4977308;28;20051;-63
2022/08/20 04:51:32;;;;;;;3.50;0.98;;;;;;;;;;5011812;28;20062;-63
2022/08/20 04:54:04;;;;;;;3.03;1.13;;;;;;;;;;5015095;28;20521;-63
2022/08/20 04:56:38;;;;;;;2.92;1.13;;;;;;;;;;5091855;28;20048;-63
2022/08/20 04:59:09;;;;;;;3.63;1.20;;;;;;;;;;5091890;28;20451;-63
2022/08/20 05:01:39;;;;;;;1.83;1.10;;;;;;;;;;5091835;28;20052;-63
2022/08/20 05:04:09;;;;;;;3.83;1.23;;;;;;;;;;5041954;28;20063;-63
2022/08/20 05:06:40;;;;;;;2.95;1.23;;;;;;;;;;5071127;28;20048;-63
2022/08/20 05:09:10;;;;;;;2.42;1.10;;;;;;;;;;5071527;28;20067;-63
2022/08/20 05:11:41;;;;;;;2.60;1.13;;;;;;;;;;5071418;28;20408;-63
2022/08/20 05:14:13;;;;;;;3.88;1.20;;;;;;;;;;5071384;28;20063;-63
2022/08/20 05:16:44;;;;;;;3.75;1.50;;;;;;;;;;5071185;28;20052;-63
2022/08/20 05:19:14;;;;;;;5.18;1.73;;;;;;;;;;5071104;28;20061;-63
2022/08/20 05:21:44;;;;;;;2.85;1.00;;;;;;;;;;5038062;28;20053;-63
2022/08/20 05:24:15;;;;;;;3.60;1.58;;;;;;;;;;5071262;28;20499;-63
2022/08/20 05:26:45;;;;;;;3.15;1.20;;;;;;;;;;5050814;28;20052;-63
2022/08/20 05:29:15;;;;;;;4.00;1.27;;;;;;;;;;5017828;28;20068;-63
2022/08/20 05:31:46;;;;;;;3.92;1.40;;;;;;;;;;5050853;28;20157;-63
2022/08/20 05:34:16;;;;;;;2.63;1.30;;;;;;;;;;5034340;28;20057;-63
2022/08/20 05:36:49;;;;;;;3.50;1.17;;;;;;;;;;5050701;28;20053;-63
2022/08/20 05:39:22;;;;;;;2.58;1.05;;;;;;;;;;5034277;28;20501;-63
2022/08/20 05:41:53;;;;;;;3.38;1.25;;;;;;;;;;5050875;28;20044;-63
2022/08/20 05:44:23;;;;;;;3.47;1.20;;;;;;;;;;5072455;28;20048;-63
2022/08/20 05:46:53;;;;;;;3.10;1.05;;;;;;;;;;5020677;28;20550;-63
2022/08/20 05:49:24;;;;;;;2.90;1.35;;;;;;;;;;5050543;28;20489;-63
2022/08/20 05:51:54;;;;;;;2.55;1.20;;;;;;;;;;5001017;28;20056;-63
2022/08/20 05:54:24;;;;;;;6.47;1.30;;;;;;;;;;5050602;28;20120;-63
2022/08/20 05:56:56;;;;;;;3.35;1.38;;;;;;;;;;5050391;28;20544;-63
2022/08/20 05:59:26;;;;;;;5.18;1.45;;;;;;;;;;5050217;28;20045;-63
2022/08/20 06:01:56;;;;;;;3.00;1.30;;;;;;;;;;4953702;28;20078;-62
2022/08/20 06:04:27;;;;;;;4.85;1.48;;;;;;;;;;5040142;28;20053;-62
2022/08/20 06:07:05;;;;;;;4.57;1.58;;;;;;;;;;4990781;28;20054;-63
2022/08/20 06:09:36;;;;;;;4.10;1.70;;;;;;;;;;4971360;28;20434;-63
2022/08/20 06:12:08;;;;;;;4.00;1.52;;;;;;;;;;4971519;28;20066;-63
2022/08/20 06:14:38;;;;;;;4.05;1.42;;;;;;;;;;4971490;28;20058;-63
2022/08/20 06:17:15;;;;;;;3.28;1.42;;;;;;;;;;4930253;29;20047;-64
2022/08/20 06:19:50;;;;;;;4.45;1.60;;;;;;;;;;4913916;29;20067;-63
2022/08/20 06:22:20;;;;;;;2.70;1.23;;;;;;;;;;4913566;29;20067;-64
2022/08/20 06:24:56;;;;;;;3.92;1.58;;;;;;;;;;4898222;29;20059;-63
2022/08/20 06:27:27;;;;;;;3.38;1.30;;;;;;;;;;4926532;29;20059;-63
2022/08/20 06:29:57;;;;;;;3.95;1.60;;;;;;;;;;4932879;29;20511;-63
2022/08/20 06:32:27;;;;;;;4.22;1.27;;;;;;;;;;4913388;29;20500;-63
2022/08/20 06:35:04;;;;;;;4.10;1.58;;;;;;;;;;4897948;29;20048;-63
2022/08/20 06:37:38;;;;;;;4.45;1.88;;;;;;;;;;4913711;29;20056;-63
2022/08/20 06:40:18;;;;;;;6.10;1.30;;;;;;;;;;4913937;29;20069;-63
2022/08/20 06:42:50;;;;;;;4.10;1.45;;;;;;;;;;4913613;29;20493;-63
2022/08/20 06:45:26;;;;;;;3.80;1.80;;;;;;;;;;4960175;28;20526;-63
2022/08/20 06:48:00;;;;;;;5.53;1.60;;;;;;;;;;4990414;28;20050;-63
2022/08/20 06:50:38;;;;;;;7.63;1.60;;;;;;;;;;4990253;28;20051;-63
2022/08/20 06:53:19;;;;;;;3.92;1.60;;;;;;;;;;4958165;28;20050;-63
2022/08/20 06:55:58;;;;;;;3.92;1.35;;;;;;;;;;5029095;28;20064;-63
2022/08/20 06:58:30;;;;;;;5.35;1.52;;;;;;;;;;5029744;28;20060;-63
2022/08/20 07:01:07;;;;;;;4.60;1.55;;;;;;;;;;5029697;28;20519;-63
2022/08/20 07:03:41;;;;;;;3.80;1.75;;;;;;;;;;5029842;28;20413;-63
2022/08/20 07:06:25;;;;;;;4.03;1.38;;;;;;;;;;5029745;28;20065;-63
2022/08/20 07:08:56;;;;;;;6.80;2.08;;;;;;;;;;5029933;28;20155;-63
2022/08/20 07:11:27;;;;;;;6.30;1.95;;;;;;;;;;5049668;28;20049;-63
2022/08/20 07:13:58;;;;;;;5.30;1.77;;;;;;;;;;5049572;28;20405;-63
2022/08/20 07:16:28;;;;;;;4.95;1.98;;;;;;;;;;5049223;28;20048;-63
2022/08/20 07:18:59;;;;;;;9.43;1.92;;;;;;;;;;5049462;28;20049;-63
2022/08/20 07:21:29;;;;;;;7.22;1.90;;;;;;;;;;5049453;28;20057;-63
2022/08/20 07:24:00;;;;;;;4.45;1.88;;;;;;;;;;5049511;28;20044;-63
2022/08/20 07:26:29;;;;;;;5.07;2.17;;;;;;;;;;5049472;28;20057;-63
2022/08/20 07:29:00;;;;;;;7.35;2.50;;;;;;;;;;5033323;28;20082;-63
2022/08/20 07:34:20;;;;;;;6.22;2.05;;;;;;;;;;5085158;28;20052;-63
2022/08/20 07:36:51;;;;;;;4.80;2.17;;;;;;;;;;5093880;28;20052;-63
2022/08/20 07:39:23;;;;;;;7.05;2.17;;;;;;;;;;5093375;28;20110;-63
2022/08/20 07:42:01;;;;;;;6.35;2.00;;;;;;;;;;5076777;28;20411;-63
2022/08/20 07:44:32;;;;;;;7.10;2.50;;;;;;;;;;5072853;28;20519;-63
2022/08/20 07:47:03;;;;;;;7.10;2.10;;;;;;;;;;5023027;28;20049;-63
2022/08/20 07:49:38;;;;;;;9.13;2.30;;;;;;;;;;5023176;28;20123;-63
2022/08/20 07:52:08;;;;;;;4.90;1.88;;;;;;;;;;5072872;28;20524;-63
2022/08/20 07:54:39;;;;;;;5.47;2.03;;;;;;;;;;5087494;28;20495;-62
2022/08/20 07:57:10;;;;;;;6.05;1.92;;;;;;;;;;5093244;28;20060;-63
2022/08/20 07:59:41;;;;;;;8.07;2.38;;;;;;;;;;5042930;28;20052;-63
2022/08/20 08:02:12;;;;;;;6.15;2.10;;;;;;;;;;5059573;28;20549;-63
2022/08/20 08:04:43;;;;;;;9.65;2.53;;;;;;;;;;5052243;28;20385;-63
2022/08/20 08:07:13;;;;;;;6.80;2.17;;;;;;;;;;5052683;28;20060;-63
2022/08/20 08:09:45;;;;;;;5.05;2.70;;;;;;;;;;5003055;28;20053;-63
2022/08/20 08:12:16;;;;;;;8.63;2.42;;;;;;;;;;5036814;28;20052;-63
2022/08/20 08:14:49;;;;;;;7.40;2.28;;;;;;;;;;5032268;28;20041;-63
2022/08/20 08:17:19;;;;;;;6.45;2.95;;;;;;;;;;5032567;28;20068;-63
2022/08/20 08:19:50;;;;;;;7.93;2.60;;;;;;;;;;5032326;28;20053;-63
2022/08/20 08:22:20;;;;;;;5.25;2.35;;;;;;;;;;5044103;28;20076;-63
2022/08/20 08:24:51;;;;;;;5.50;2.15;;;;;;;;;;5052376;28;20052;-63
2022/08/20 08:27:25;;;;;;;7.03;2.50;;;;;;;;;;5019336;28;20060;-63
2022/08/20 08:29:58;;;;;;;6.72;2.92;;;;;;;;;;5052176;28;20057;-63
2022/08/20 08:32:31;;;;;;;7.70;2.28;;;;;;;;;;5036036;28;20151;-63
2022/08/20 08:35:07;;;;;;;7.45;2.58;;;;;;;;;;5052019;28;20048;-63
2022/08/20 08:37:38;;;;;;;8.80;3.35;;;;;;;;;;5052161;28;20424;-63
2022/08/20 08:40:08;;;;;;;5.65;2.35;;;;;;;;;;5051917;28;20061;-63
2022/08/20 08:42:56;;;;;;;5.07;2.35;;;;;;;;;;5077555;28;20499;-63
2022/08/20 08:45:45;;;;;;;5.05;2.00;;;;;;;;;;5091814;28;20048;-63
2022/08/20 08:48:18;;;;;;;6.85;2.53;;;;;;;;;;5063224;28;20063;-63
2022/08/20 08:50:52;;;;;;;5.05;2.25;;;;;;;;;;5091972;28;20178;-63
2022/08/20 08:53:27;;;;;;;6.60;2.63;;;;;;;;;;5056974;28;20056;-63
2022/08/20 08:55:58;;;;;;;7.85;3.08;;;;;;;;;;5094279;28;20044;-63
2022/08/20 08:58:29;;;;;;;6.70;3.03;;;;;;;;;;5094182;28;20036;-63
2022/08/20 09:01:11;;;;;;;8.00;3.35;;;;;;;;;;5059835;28;20059;-63
2022/08/20 09:04:04;;;;;;;6.95;2.90;;;;;;;;;;5079774;28;20443;-63
2022/08/20 09:06:35;;;;;;;8.70;2.72;;;;;;;;;;5075616;28;20534;-63
2022/08/20 09:09:17;;;;;;;7.47;3.05;;;;;;;;;;5091717;28;20403;-63
2022/08/20 09:11:52;;;;;;;5.53;2.63;;;;;;;;;;5091648;28;20048;-63
2022/08/20 09:14:23;;;;;;;7.95;2.72;;;;;;;;;;5091705;28;20055;-62
2022/08/20 09:16:53;;;;;;;7.57;2.75;;;;;;;;;;5091604;28;20546;-63
2022/08/20 09:19:24;;;;;;;9.15;3.33;;;;;;;;;;5091545;28;20435;-63
2022/08/20 09:21:54;;;;;;;6.18;2.88;;;;;;;;;;5051045;28;20080;-62
2022/08/20 09:24:25;;;;;;;7.85;2.78;;;;;;;;;;5014714;28;20061;-62
2022/08/20 09:26:55;;;;;;;6.57;2.65;;;;;;;;;;5031130;28;20475;-63
2022/08/20 09:29:25;;;;;;;7.30;2.42;;;;;;;;;;4972167;28;20055;-62
2022/08/20 09:32:18;;;;;;;6.72;2.90;;;;;;;;;;4972385;28;20553;-63
2022/08/20 09:34:55;;;;;;;7.70;2.72;;;;;;;;;;4982303;28;20059;-63
2022/08/20 09:37:29;;;;;;;5.72;2.90;;;;;;;;;;4991660;28;20042;-63
2022/08/20 09:40:07;;;;;;;6.13;2.72;;;;;;;;;;4991646;28;20168;-62
2022/08/20 09:42:38;;;;;;;9.05;3.40;;;;;;;;;;4974875;28;20521;-62
2022/08/20 09:45:11;;;;;;;8.27;3.70;;;;;;;;;;4972012;28;20054;-62
2022/08/20 09:47:42;;;;;;;11.48;3.42;;;;;;;;;;4971690;28;20518;-63
2022/08/20 09:50:27;;;;;;;7.93;3.70;;;;;;;;;;4972015;28;20131;-63
2022/08/20 09:53:00;;;;;;;9.80;3.75;;;;;;;;;;4955527;28;20065;-63
2022/08/20 09:55:35;;;;;;;;;;;;;;;;;;4972402;28;20059;-63
2022/08/20 09:58:41;;;;;;;9.95;3.90;;;;;;;;;;4971322;28;19926;-63
2022/08/20 10:01:14;;;;;;;10.73;3.97;;;;;;;;;;5035449;28;20064;-63
2022/08/20 10:03:49;;;;;;;9.85;3.75;;;;;;;;;;5050539;28;20049;-63
2022/08/20 10:06:20;;;;;;;8.45;3.67;;;;;;;;;;5030095;28;20053;-63
2022/08/20 10:08:51;;;;;;;7.95;3.67;;;;;;;;;;5030188;28;20053;-63
2022/08/20 10:11:20;;;;;;;11.18;3.90;;;;;;;;;;5030438;28;20057;-63
2022/08/20 10:13:53;;;;;;;8.90;4.00;;;;;;;;;;5030399;28;20053;-63
2022/08/20 10:16:23;;;;;;;9.52;3.45;;;;;;;;;;5030248;28;20101;-63
2022/08/20 10:18:54;;;;;;;8.30;4.15;;;;;;;;;;5010233;28;20065;-62
2022/08/20 10:21:24;;;;;;;10.82;3.72;;;;;;;;;;5010267;28;20062;-64
2022/08/20 10:23:54;;;;;;;13.00;3.67;;;;;;;;;;5010377;28;20060;-62
2022/08/20 10:26:25;;;;;;;9.68;3.38;;;;;;;;;;4979861;28;20157;-63
2022/08/20 10:28:55;;;;;;;11.52;3.75;;;;;;;;;;5029904;28;20624;-62
2022/08/20 10:31:25;;;;;;;10.43;4.18;;;;;;;;;;4980988;28;20069;-63
2022/08/20 10:33:55;;;;;;;11.05;3.72;;;;;;;;;;4981171;28;20053;-63
2022/08/20 10:36:25;;;;;;;9.80;3.75;;;;;;;;;;5029961;28;20064;-63
2022/08/20 10:38:56;;;;;;;10.02;3.15;;;;;;;;;;5030088;28;20057;-63
2022/08/20 10:41:27;;;;;;;8.10;3.58;;;;;;;;;;5013916;28;20053;-63
2022/08/20 10:43:57;;;;;;;9.52;3.38;;;;;;;;;;5059404;28;20056;-63
2022/08/20 10:46:28;;;;;;;7.32;3.55;;;;;;;;;;5089899;28;20059;-63
2022/08/20 10:48:58;;;;;;;9.90;3.75;;;;;;;;;;5069571;28;20081;-62
2022/08/20 10:51:28;;;;;;;9.48;3.53;;;;;;;;;;5069332;28;20197;-63
2022/08/20 10:54:00;;;;;;;6.75;2.97;;;;;;;;;;5069745;28;20060;-62
2022/08/20 10:56:36;;;;;;;8.25;3.00;;;;;;;;;;5058533;28;20060;-62
2022/08/20 10:59:07;;;;;;;10.15;3.45;;;;;;;;;;5039681;28;20523;-63
2022/08/20 11:01:37;;;;;;;8.48;2.75;;;;;;;;;;5089603;28;20051;-63
2022/08/20 11:04:07;;;;;;;8.70;3.03;;;;;;;;;;5019640;28;20459;-63
2022/08/20 11:06:38;;;;;;;10.38;3.45;;;;;;;;;;5048103;28;20064;-63
2022/08/20 11:09:08;;;;;;;9.82;3.72;;;;;;;;;;5031638;28;20413;-63
2022/08/20 11:11:39;;;;;;;6.72;3.47;;;;;;;;;;5033541;28;20080;-63
2022/08/20 11:14:09;;;;;;;7.13;3.22;;;;;;;;;;5017417;28;20062;-64
2022/08/20 11:16:39;;;;;;;8.65;3.47;;;;;;;;;;5033462;28;20052;-63
2022/08/20 11:19:10;;;;;;;8.30;3.55;;;;;;;;;;5033513;28;20110;-63
2022/08/20 11:21:40;;;;;;;6.60;3.30;;;;;;;;;;5016520;28;20506;-64
2022/08/20 11:24:10;;;;;;;9.20;3.08;;;;;;;;;;5016857;28;20156;-64
2022/08/20 11:26:41;;;;;;;9.18;3.42;;;;;;;;;;5000127;28;20500;-63
2022/08/20 11:29:11;;;;;;;10.23;3.42;;;;;;;;;;5033312;28;20054;-64
2022/08/20 11:31:42;;;;;;;7.55;3.35;;;;;;;;;;5017158;28;20053;-64
2022/08/20 11:34:12;;;;;;;7.80;3.67;;;;;;;;;;5033181;28;20539;-64
2022/08/20 11:36:43;;;;;;;6.57;3.38;;;;;;;;;;5033147;28;20531;-64
2022/08/20 11:39:14;;;;;;;8.63;3.38;;;;;;;;;;5033043;28;20057;-64
2022/08/20 11:41:46;;;;;;;8.02;3.30;;;;;;;;;;5033069;28;20049;-64
2022/08/20 11:44:23;;;;;;;7.90;3.25;;;;;;;;;;5028075;28;20563;-64
2022/08/20 11:46:53;;;;;;;7.97;3.50;;;;;;;;;;5050889;28;20551;-64
2022/08/20 11:49:24;;;;;;;8.55;3.17;;;;;;;;;;5052858;28;20153;-64
2022/08/20 11:51:54;;;;;;;10.77;3.75;;;;;;;;;;5036314;28;20052;-64
2022/08/20 11:54:27;;;;;;;8.93;3.63;;;;;;;;;;5053127;28;20045;-66
2022/08/20 11:56:58;;;;;;;6.57;3.28;;;;;;;;;;5052658;28;20489;-66
2022/08/20 11:59:28;;;;;;;7.10;3.25;;;;;;;;;;5035983;28;20404;-65
2022/08/20 12:01:59;;;;;;;11.32;4.63;;;;;;;;;;5052256;28;20065;-65
2022/08/20 12:04:31;;;;;;;41.67;13.60;;;;;;;;;;5043871;28;20051;-65
2022/08/20 12:07:17;;;;;;;84.85;27.83;;;;;;;;;;5092980;28;20051;-66
2022/08/20 12:09:49;;;;;;;28.75;10.55;;;;;;;;;;5075278;28;20523;-67
2022/08/20 12:12:22;;;;;;;12.60;5.93;;;;;;;;;;5092656;28;20052;-66
2022/08/20 12:14:54;;;;;;;10.02;5.40;;;;;;;;;;5092769;28;20056;-66
2022/08/20 12:17:27;;;;;;;14.55;5.45;;;;;;;;;;4994977;28;20052;-66
2022/08/20 12:19:59;;;;;;;15.45;6.05;;;;;;;;;;5009343;28;20059;-65
2022/08/20 12:22:29;;;;;;;13.82;5.68;;;;;;;;;;5092776;28;20060;-66
2022/08/20 12:24:59;;;;;;;18.75;7.50;;;;;;;;;;5092300;28;20447;-66
2022/08/20 12:27:31;;;;;;;12.82;6.05;;;;;;;;;;5092454;28;20060;-65
2022/08/20 12:30:09;;;;;;;16.13;7.07;;;;;;;;;;5092516;28;20058;-65
2022/08/20 12:32:41;;;;;;;12.85;4.22;;;;;;;;;;5058525;28;20411;-64
2022/08/20 12:35:12;;;;;;;23.77;9.88;;;;;;;;;;5092421;28;20048;-64
2022/08/20 12:37:44;;;;;;;42.95;13.57;;;;;;;;;;5092290;28;20082;-64
2022/08/20 12:40:19;;;;;;;13.02;5.28;;;;;;;;;;5092250;28;20052;-65
2022/08/20 12:43:02;;;;;;;6.00;2.70;;;;;;;;;;5092174;28;20094;-64
2022/08/20 12:45:34;;;;;;;10.05;5.10;;;;;;;;;;5071778;28;20539;-65
2022/08/20 12:48:10;;;;;;;14.43;5.60;;;;;;;;;;5071965;28;20620;-65
2022/08/20 12:50:44;;;;;;;10.13;4.88;;;;;;;;;;5071519;28;20531;-65
2022/08/20 12:53:15;;;;;;;9.65;3.72;;;;;;;;;;5001973;28;20452;-65
2022/08/20 12:55:46;;;;;;;10.65;4.82;;;;;;;;;;5018518;28;20056;-65
2022/08/20 12:58:16;;;;;;;5.63;2.78;;;;;;;;;;5051803;28;20057;-65
2022/08/20 13:00:47;;;;;;;18.35;8.70;;;;;;;;;;5051517;28;20064;-65
2022/08/20 13:03:19;;;;;;;14.38;6.03;;;;;;;;;;5023688;28;20049;-65
2022/08/20 13:05:50;;;;;;;15.68;5.07;;;;;;;;;;5011380;28;20054;-65
2022/08/20 13:08:20;;;;;;;5.43;1.92;;;;;;;;;;4996270;28;20057;-65
2022/08/20 13:10:50;;;;;;;4.22;1.35;;;;;;;;;;4972437;28;20051;-64
2022/08/20 13:13:21;;;;;;;7.93;1.55;;;;;;;;;;4972755;28;20054;-65
2022/08/20 13:15:51;;;;;;;3.90;1.30;;;;;;;;;;4972650;28;20058;-65
2022/08/20 13:18:21;;;;;;;2.65;1.00;;;;;;;;;;4972617;28;20051;-64
2022/08/20 13:20:51;;;;;;;7.47;2.92;;;;;;;;;;4972511;28;20050;-64
2022/08/20 13:23:21;;;;;;;5.07;2.75;;;;;;;;;;4972527;28;20062;-64
2022/08/20 13:25:52;;;;;;;3.70;1.20;;;;;;;;;;4956332;28;20495;-64
2022/08/20 13:28:23;;;;;;;8.48;3.60;;;;;;;;;;4972525;28;20066;-64
2022/08/20 13:30:53;;;;;;;9.75;2.97;;;;;;;;;;4975461;28;20097;-65
2022/08/20 13:33:25;;;;;;;5.75;2.53;;;;;;;;;;5010511;28;20053;-65
2022/08/20 13:35:57;;;;;;;5.88;2.83;;;;;;;;;;4978881;28;20087;-64
2022/08/20 13:38:30;;;;;;;3.67;1.63;;;;;;;;;;5011582;28;20053;-64
2022/08/20 13:41:00;;;;;;;2.55;1.02;;;;;;;;;;5011171;28;20041;-65
2022/08/20 13:43:30;;;;;;;4.90;2.63;;;;;;;;;;4998675;28;20053;-65
2022/08/20 13:46:01;;;;;;;3.15;1.13;;;;;;;;;;5050833;28;20119;-64
2022/08/20 13:48:32;;;;;;;11.32;4.90;;;;;;;;;;5065768;28;20047;-65
2022/08/20 13:51:02;;;;;;;1.92;0.93;;;;;;;;;;5024083;28;20055;-64
2022/08/20 13:53:34;;;;;;;;;;;;;;;;;;5091187;28;20399;-65
2022/08/20 13:56:05;;;;;;;2.33;0.88;;;;;;;;;;5090778;28;20415;-65
2022/08/20 13:58:36;;;;;;;2.38;0.75;;;;;;;;;;5090640;28;20048;-65
2022/08/20 14:01:06;;;;;;;1.88;0.93;;;;;;;;;;5090619;28;20067;-65
2022/08/20 14:03:37;;;;;;;3.67;1.33;;;;;;;;;;5040384;28;20056;-65
2022/08/20 14:06:10;;;;;;;1.73;0.70;;;;;;;;;;5056833;28;20487;-65
2022/08/20 14:08:40;;;;;;;66.15;21.70;;;;;;;;;;5090514;28;20055;-65
2022/08/20 14:11:11;;;;;;;3.78;1.40;;;;;;;;;;5070120;28;20059;-65
2022/08/20 14:13:46;;;;;;;8.73;3.75;;;;;;;;;;5054725;28;20404;-65
2022/08/20 14:16:17;;;;;;;4.38;1.48;;;;;;;;;;5070358;28;20049;-65
2022/08/20 14:18:55;;;;;;;3.38;1.13;;;;;;;;;;5070179;28;20527;-65
2022/08/20 14:21:25;;;;;;;2.03;0.65;;;;;;;;;;5070356;28;20049;-65
2022/08/20 14:23:57;;;;;;;2.53;1.10;;;;;;;;;;5030140;28;20436;-65
2022/08/20 14:26:27;;;;;;;5.97;1.20;;;;;;;;;;5018001;28;20494;-64
2022/08/20 14:28:57;;;;;;;2.35;1.20;;;;;;;;;;5022392;28;20090;-65
2022/08/20 14:31:28;;;;;;;4.43;1.10;;;;;;;;;;5030144;28;20484;-66
2022/08/20 14:33:58;;;;;;;3.53;1.13;;;;;;;;;;5029912;28;20054;-66
2022/08/20 14:36:28;;;;;;;3.47;1.20;;;;;;;;;;5029905;28;20162;-66
2022/08/20 14:38:58;;;;;;;3.10;1.27;;;;;;;;;;5029949;28;20425;-66
2022/08/20 14:41:29;;;;;;;2.08;0.88;;;;;;;;;;5033445;28;20063;-66
2022/08/20 14:44:00;;;;;;;2.97;1.00;;;;;;;;;;5049586;28;20037;-66
2022/08/20 14:46:33;;;;;;;3.03;1.10;;;;;;;;;;5049996;28;20049;-65
2022/08/20 14:49:03;;;;;;;3.45;1.58;;;;;;;;;;5000100;28;20088;-65
2022/08/20 14:51:36;;;;;;;8.02;1.52;;;;;;;;;;5049526;28;20056;-65
2022/08/20 14:54:08;;;;;;;4.05;1.48;;;;;;;;;;5049547;28;20091;-66
2022/08/20 14:56:40;;;;;;;5.65;1.58;;;;;;;;;;5049659;28;20467;-66
2022/08/20 14:59:11;;;;;;;1.85;0.88;;;;;;;;;;5032825;28;20076;-66
2022/08/20 15:01:41;;;;;;;2.20;1.17;;;;;;;;;;5052197;28;20068;-66
2022/08/20 15:04:11;;;;;;;3.97;1.20;;;;;;;;;;5032366;28;20068;-66
2022/08/20 15:06:42;;;;;;;3.08;0.60;;;;;;;;;;5049464;28;20060;-66
2022/08/20 15:09:13;;;;;;;2.25;1.13;;;;;;;;;;5049467;28;20084;-66
2022/08/20 15:11:44;;;;;;;4.30;1.73;;;;;;;;;;5049712;28;20052;-66
2022/08/20 15:14:15;;;;;;;4.90;2.38;;;;;;;;;;5049493;28;20468;-66
2022/08/20 15:16:46;;;;;;;3.25;1.70;;;;;;;;;;5049629;28;20049;-65
2022/08/20 15:19:16;;;;;;;5.35;2.50;;;;;;;;;;5049229;28;20056;-66